createdAt,value
2019-04-21T00:00:35.586Z,9.23
2019-04-21T00:03:13.161Z,8.80
2019-04-21T00:05:58.554Z,10.23
2019-04-21T00:08:33.641Z,9.13
2019-04-21T00:11:03.012Z,9.27
2019-04-21T00:13:23.338Z,10.03
2019-04-21T00:15:48.931Z,10.40
2019-04-21T00:18:40.835Z,9.73
2019-04-21T00:21:13.827Z,11.27
2019-04-21T00:23:53.794Z,10.50
2019-04-21T00:26:24.241Z,12.17
2019-04-21T00:29:05.135Z,10.63
2019-04-21T00:31:24.649Z,9.97
2019-04-21T00:33:44.439Z,10.23
2019-04-21T00:36:18.560Z,10.83
2019-04-21T00:39:15.768Z,9.37
2019-04-21T00:41:38.016Z,9.63
2019-04-21T00:44:00.650Z,9.73
2019-04-21T00:46:30.763Z,9.80
2019-04-21T00:49:06.130Z,11.23
2019-04-21T00:51:55.446Z,10.40
2019-04-21T00:54:33.287Z,9.83
2019-04-21T00:56:56.908Z,9.93
2019-04-21T00:59:25.626Z,10.50
2019-04-21T01:01:56.606Z,13.53
2019-04-21T01:04:30.478Z,10.30
2019-04-21T01:07:05.277Z,10.17
2019-04-21T01:09:27.555Z,10.80
2019-04-21T01:12:02.082Z,11.10
2019-04-21T01:14:45.309Z,11.60
2019-04-21T01:17:10.873Z,10.70
2019-04-21T01:19:33.224Z,12.40
2019-04-21T01:21:48.119Z,11.67
2019-04-21T01:24:24.590Z,9.93
2019-04-21T01:27:01.023Z,10.83
2019-04-21T01:29:42.807Z,9.00
2019-04-21T01:32:19.373Z,11.23
2019-04-21T01:34:45.375Z,10.20
2019-04-21T01:37:15.822Z,10.03
2019-04-21T01:39:53.336Z,10.13
2019-04-21T01:42:18.875Z,12.30
2019-04-21T01:44:52.278Z,11.07
2019-04-21T01:47:15.812Z,10.97
2019-04-21T01:49:43.003Z,11.47
2019-04-21T01:52:34.540Z,10.10
2019-04-21T01:55:12.641Z,9.80
2019-04-21T01:57:45.258Z,11.83
2019-04-21T02:00:14.836Z,11.17
2019-04-21T02:03:04.282Z,10.50
2019-04-21T02:05:32.693Z,10.97
2019-04-21T02:07:55.070Z,9.00
2019-04-21T02:10:34.701Z,9.90
2019-04-21T02:13:07.134Z,11.17
2019-04-21T02:15:36.500Z,9.67
2019-04-21T02:18:08.939Z,9.70
2019-04-21T02:20:30.504Z,9.90
2019-04-21T02:25:38.524Z,11.93
2019-04-21T02:28:12.498Z,12.40
2019-04-21T02:31:02.475Z,9.57
2019-04-21T02:36:00.653Z,11.47
2019-04-21T02:38:34.437Z,10.10
2019-04-21T02:43:24.957Z,10.50
2019-04-21T02:46:06.989Z,12.20
2019-04-21T02:48:38.289Z,11.57
2019-04-21T02:50:57.617Z,9.53
2019-04-21T02:53:48.155Z,10.10
2019-04-21T02:56:08.825Z,10.63
2019-04-21T03:01:31.883Z,10.47
2019-04-21T03:04:04.917Z,11.40
2019-04-21T03:06:59.954Z,10.40
2019-04-21T03:09:24.415Z,11.33
2019-04-21T03:12:01.566Z,10.50
2019-04-21T03:16:47.148Z,10.83
2019-04-21T03:19:39.815Z,11.67
2019-04-21T03:21:59.249Z,12.20
2019-04-21T03:24:43.687Z,9.63
2019-04-21T03:32:40.170Z,10.30
2019-04-21T03:37:06.970Z,10.67
2019-04-21T03:39:47.028Z,11.13
2019-04-21T03:42:19.870Z,11.47
2019-04-21T03:45:15.049Z,10.77
2019-04-21T03:47:20.766Z,12.37
2019-04-21T03:49:54.298Z,11.63
2019-04-21T03:52:20.086Z,10.27
2019-04-21T03:55:48.708Z,11.27
2019-04-21T04:06:03.666Z,11.60
2019-04-21T04:14:06.338Z,10.23
2019-04-21T04:16:18.842Z,10.43
2019-04-21T04:19:09.467Z,10.67
2019-04-21T04:21:30.847Z,11.53
2019-04-21T04:26:25.400Z,12.60
2019-04-21T04:28:56.320Z,14.33
2019-04-21T04:31:31.922Z,9.63
2019-04-21T04:34:10.003Z,10.67
2019-04-21T04:39:35.838Z,10.40
2019-04-21T04:42:12.591Z,12.00
2019-04-21T04:47:12.274Z,11.37
2019-04-21T04:49:49.629Z,10.57
2019-04-21T04:52:31.399Z,10.00
2019-04-21T04:57:34.305Z,11.87
2019-04-21T05:02:30.459Z,10.57
2019-04-21T05:04:55.222Z,11.20
2019-04-21T05:07:23.487Z,11.53
2019-04-21T05:12:15.858Z,11.57
2019-04-21T05:14:51.877Z,11.00
2019-04-21T05:17:28.817Z,11.47
2019-04-21T05:22:21.967Z,10.50
2019-04-21T05:24:52.363Z,10.57
2019-04-21T05:27:33.555Z,10.43
2019-04-21T05:30:17.295Z,12.27
2019-04-21T05:32:48.309Z,11.00
2019-04-21T05:35:23.200Z,10.47
2019-04-21T05:38:01.412Z,10.40
2019-04-21T05:40:22.198Z,11.50
2019-04-21T05:43:03.361Z,12.03
2019-04-21T05:45:33.545Z,12.23
2019-04-21T05:50:32.592Z,10.83
2019-04-21T05:53:17.677Z,10.43
2019-04-21T05:55:46.688Z,12.40
2019-04-21T05:58:08.450Z,9.83
2019-04-21T06:01:06.457Z,10.93
2019-04-21T06:03:29.569Z,11.83
2019-04-21T06:08:18.133Z,12.30
2019-04-21T06:10:58.425Z,15.50
2019-04-21T06:13:26.501Z,12.10
2019-04-21T06:15:56.228Z,12.60
2019-04-21T06:18:35.400Z,10.67
2019-04-21T06:20:59.748Z,11.80
2019-04-21T06:23:30.262Z,11.77
2019-04-21T06:26:20.014Z,10.97
2019-04-21T06:28:40.156Z,11.67
2019-04-21T06:31:12.515Z,12.73
2019-04-21T06:33:43.151Z,12.43
2019-04-21T06:36:31.901Z,11.90
2019-04-21T06:39:01.843Z,16.13
2019-04-21T06:41:27.638Z,11.67
2019-04-21T06:44:02.639Z,12.33
2019-04-21T06:46:33.408Z,12.93
2019-04-21T06:56:37.699Z,10.87
2019-04-21T06:59:00.826Z,13.23
2019-04-21T07:01:36.027Z,12.90
2019-04-21T07:04:13.346Z,13.00
2019-04-21T07:06:42.615Z,12.80
2019-04-21T07:09:18.430Z,13.50
2019-04-21T07:11:38.151Z,13.70
2019-04-21T07:14:29.435Z,14.47
2019-04-21T07:16:49.730Z,12.17
2019-04-21T07:21:48.291Z,13.30
2019-04-21T07:24:22.601Z,11.57
2019-04-21T07:26:44.776Z,13.77
2019-04-21T07:29:21.873Z,14.40
2019-04-21T07:31:55.553Z,14.20
2019-04-21T07:34:22.963Z,13.70
2019-04-21T07:39:18.106Z,12.27
2019-04-21T07:41:48.427Z,12.63
2019-04-21T07:44:17.099Z,12.80
2019-04-21T07:46:47.212Z,17.17
2019-04-21T07:49:40.023Z,12.63
2019-04-21T07:52:28.607Z,13.47
2019-04-21T07:55:15.303Z,16.07
2019-04-21T07:57:23.435Z,13.90
2019-04-21T08:02:38.576Z,13.13
2019-04-21T08:05:23.868Z,11.80
2019-04-21T08:07:48.019Z,12.00
2019-04-21T08:10:03.424Z,15.03
2019-04-21T08:12:37.973Z,12.43
2019-04-21T08:15:15.661Z,13.20
2019-04-21T08:17:41.360Z,11.53
2019-04-21T08:20:12.253Z,12.67
2019-04-21T08:22:51.075Z,13.80
2019-04-21T08:25:18.201Z,12.77
2019-04-21T08:30:22.673Z,12.87
2019-04-21T08:35:49.507Z,14.07
2019-04-21T08:37:48.522Z,13.27
2019-04-21T08:40:34.131Z,13.37
2019-04-21T08:43:20.497Z,12.97
2019-04-21T08:45:40.531Z,11.30
2019-04-21T08:48:07.319Z,10.27
2019-04-21T08:50:30.656Z,11.80
2019-04-21T08:53:11.355Z,14.60
2019-04-21T08:55:40.114Z,12.17
2019-04-21T08:58:24.811Z,13.00
2019-04-21T09:01:08.836Z,10.93
2019-04-21T09:03:57.052Z,10.53
2019-04-21T09:06:40.259Z,14.07
2019-04-21T09:09:01.631Z,10.10
2019-04-21T09:11:22.598Z,13.87
2019-04-21T09:13:54.828Z,11.73
2019-04-21T09:16:26.439Z,10.43
2019-04-21T09:18:57.673Z,11.23
2019-04-21T09:21:43.699Z,10.90
2019-04-21T09:24:13.060Z,11.83
2019-04-21T09:26:43.215Z,13.07
2019-04-21T09:29:04.377Z,10.50
2019-04-21T09:31:33.932Z,13.20
2019-04-21T09:34:01.165Z,13.00
2019-04-21T09:36:38.961Z,12.03
2019-04-21T09:39:10.810Z,10.53
2019-04-21T09:41:36.406Z,11.97
2019-04-21T09:44:08.729Z,12.10
2019-04-21T09:46:44.929Z,10.77
2019-04-21T09:49:12.643Z,13.67
2019-04-21T09:51:39.673Z,12.60
2019-04-21T09:54:16.909Z,11.50
2019-04-21T09:56:52.383Z,14.27
2019-04-21T09:59:20.694Z,12.30
2019-04-21T10:01:54.953Z,12.20
2019-04-21T10:04:18.719Z,12.87
2019-04-21T10:06:50.067Z,11.57
2019-04-21T10:09:21.343Z,13.93
2019-04-21T10:11:52.615Z,14.00
2019-04-21T10:14:22.487Z,12.20
2019-04-21T10:16:54.039Z,12.17
2019-04-21T10:19:25.556Z,14.27
2019-04-21T10:21:56.230Z,11.77
2019-04-21T10:24:28.412Z,12.30
2019-04-21T10:26:58.979Z,10.80
2019-04-21T10:29:31.285Z,12.30
2019-04-21T10:31:59.711Z,16.27
2019-04-21T10:34:29.389Z,9.73
2019-04-21T10:36:58.864Z,10.97
2019-04-21T10:39:29.417Z,12.83
2019-04-21T10:41:59.583Z,14.50
2019-04-21T10:44:29.551Z,12.90
2019-04-21T10:47:00.568Z,12.13
2019-04-21T10:49:30.759Z,13.03
2019-04-21T10:52:01.852Z,13.60
2019-04-21T10:54:49.212Z,12.57
2019-04-21T10:57:04.288Z,12.33
2019-04-21T10:59:33.654Z,11.83
2019-04-21T11:02:05.128Z,10.70
2019-04-21T11:04:38.222Z,14.40
2019-04-21T11:07:13.521Z,14.03
2019-04-21T11:09:40.182Z,11.87
2019-04-21T11:12:11.441Z,10.40
2019-04-21T11:14:41.169Z,12.27
2019-04-21T11:17:12.276Z,13.77
2019-04-21T11:19:43.023Z,15.57
2019-04-21T11:22:12.691Z,13.23
2019-04-21T11:24:43.019Z,11.33
2019-04-21T11:27:12.869Z,11.57
2019-04-21T11:29:43.277Z,12.50
2019-04-21T11:32:12.834Z,10.40
2019-04-21T11:34:43.152Z,10.90
2019-04-21T11:37:14.342Z,11.00
2019-04-21T11:39:52.121Z,13.13
2019-04-21T11:42:19.558Z,12.03
2019-04-21T11:44:49.429Z,11.13
2019-04-21T11:47:30.323Z,12.47
2019-04-21T11:50:01.087Z,13.40
2019-04-21T11:52:31.243Z,12.60
2019-04-21T11:55:02.780Z,12.47
2019-04-21T11:57:36.708Z,12.30
2019-04-21T12:00:03.892Z,12.10
2019-04-21T12:02:35.336Z,11.83
2019-04-21T12:05:07.917Z,11.00
2019-04-21T12:07:37.611Z,10.83
2019-04-21T12:10:09.227Z,12.73
2019-04-21T12:12:39.258Z,11.83
2019-04-21T12:15:11.221Z,12.37
2019-04-21T12:17:41.708Z,10.93
2019-04-21T12:20:12.696Z,13.77
2019-04-21T12:22:43.317Z,11.90
2019-04-21T12:25:18.761Z,11.77
2019-04-21T12:27:48.225Z,10.43
2019-04-21T12:30:18.104Z,11.47
2019-04-21T12:32:49.094Z,10.30
2019-04-21T12:35:19.688Z,10.47
2019-04-21T12:37:53.174Z,10.60
2019-04-21T12:40:26.313Z,12.10
2019-04-21T12:42:56.806Z,11.73
2019-04-21T12:45:26.350Z,9.40
2019-04-21T12:47:55.961Z,10.47
2019-04-21T12:50:25.851Z,10.23
2019-04-21T12:52:55.836Z,14.90
2019-04-21T12:55:30.511Z,10.00
2019-04-21T12:57:57.266Z,9.87
2019-04-21T13:00:27.002Z,9.33
2019-04-21T13:02:56.531Z,10.33
2019-04-21T13:05:25.924Z,9.20
2019-04-21T13:07:55.294Z,9.93
2019-04-21T13:10:24.803Z,10.27
2019-04-21T13:12:54.400Z,10.47
2019-04-21T13:15:25.263Z,11.67
2019-04-21T13:17:56.233Z,9.23
2019-04-21T13:20:25.804Z,9.37
2019-04-21T13:22:55.268Z,9.00
2019-04-21T13:25:25.614Z,11.20
2019-04-21T13:27:56.423Z,9.93
2019-04-21T13:30:26.392Z,9.30
2019-04-21T13:32:58.564Z,9.03
2019-04-21T13:35:27.057Z,9.70
2019-04-21T13:37:56.391Z,10.97
2019-04-21T13:41:01.031Z,10.97
2019-04-21T13:43:17.043Z,9.63
2019-04-21T13:45:47.802Z,8.73
2019-04-21T13:48:18.798Z,10.97
2019-04-21T13:50:49.480Z,8.93
2019-04-21T13:53:18.851Z,9.53
2019-04-21T13:55:48.675Z,8.73
2019-04-21T13:58:18.195Z,11.50
2019-04-21T14:00:50.085Z,10.53
2019-04-21T14:03:21.672Z,9.53
2019-04-21T14:05:52.109Z,10.90
2019-04-21T14:08:23.211Z,10.97
2019-04-21T14:10:53.591Z,9.07
2019-04-21T14:13:24.385Z,10.90
2019-04-21T14:15:55.972Z,11.67
2019-04-21T14:18:28.859Z,10.00
2019-04-21T14:20:58.743Z,11.77
2019-04-21T14:23:33.530Z,9.10
2019-04-21T14:26:01.759Z,9.83
2019-04-21T14:28:33.708Z,9.93
2019-04-21T14:31:04.308Z,9.43
2019-04-21T14:33:36.171Z,9.00
2019-04-21T14:36:05.838Z,9.70
2019-04-21T14:38:36.543Z,9.10
2019-04-21T14:41:08.264Z,9.20
2019-04-21T14:43:38.483Z,8.17
2019-04-21T14:46:15.637Z,9.63
2019-04-21T14:48:57.239Z,12.00
2019-04-21T14:51:45.567Z,9.87
2019-04-21T14:54:20.582Z,9.03
2019-04-21T14:56:53.395Z,10.07
2019-04-21T14:59:23.234Z,9.63
2019-04-21T15:01:53.652Z,9.23
2019-04-21T15:04:24.203Z,9.40
2019-04-21T15:06:54.901Z,8.87
2019-04-21T15:09:25.267Z,8.60
2019-04-21T15:11:56.032Z,9.17
2019-04-21T15:14:26.296Z,9.43
2019-04-21T15:16:56.817Z,10.20
2019-04-21T15:19:26.588Z,9.20
2019-04-21T15:21:56.688Z,9.77
2019-04-21T15:24:26.773Z,9.70
2019-04-21T15:26:57.103Z,9.00
2019-04-21T15:29:26.820Z,9.27
2019-04-21T15:31:56.848Z,9.17
2019-04-21T15:34:27.385Z,9.97
2019-04-21T15:36:57.999Z,10.43
2019-04-21T15:39:28.079Z,9.80
2019-04-21T15:41:58.870Z,10.10
2019-04-21T15:44:28.340Z,9.27
2019-04-21T15:46:57.885Z,9.00
2019-04-21T15:49:40.643Z,9.23
2019-04-21T15:52:01.940Z,8.93
2019-04-21T15:54:32.370Z,10.67
2019-04-21T15:57:04.780Z,10.27
2019-04-21T15:59:36.818Z,9.17
2019-04-21T16:02:26.571Z,10.07
2019-04-21T16:04:58.997Z,10.53
2019-04-21T16:07:29.805Z,10.10
2019-04-21T16:10:02.305Z,9.90
2019-04-21T16:12:33.898Z,9.20
2019-04-21T16:15:04.988Z,9.80
2019-04-21T16:17:35.309Z,11.13
2019-04-21T16:20:08.002Z,9.60
2019-04-21T16:22:38.823Z,8.37
2019-04-21T16:25:10.763Z,8.93
2019-04-21T16:27:41.411Z,8.97
2019-04-21T16:30:12.179Z,7.83
2019-04-21T16:32:42.055Z,9.60
2019-04-21T16:35:14.507Z,8.90
2019-04-21T16:37:44.064Z,8.90
2019-04-21T16:40:14.091Z,7.93
2019-04-21T16:42:43.537Z,9.60
2019-04-21T16:45:14.784Z,12.10
2019-04-21T16:47:47.382Z,9.73
2019-04-21T16:50:16.235Z,8.87
2019-04-21T16:52:48.027Z,9.03
2019-04-21T16:55:19.261Z,8.27
2019-04-21T16:58:06.815Z,8.43
2019-04-21T17:00:35.205Z,8.10
2019-04-21T17:02:58.781Z,7.30
2019-04-21T17:05:28.427Z,8.53
2019-04-21T17:07:59.615Z,8.87
2019-04-21T17:10:30.644Z,8.67
2019-04-21T17:13:00.143Z,8.30
2019-04-21T17:15:50.674Z,8.47
2019-04-21T17:18:20.260Z,7.67
2019-04-21T17:20:42.934Z,7.17
2019-04-21T17:23:07.091Z,8.67
2019-04-21T17:25:37.067Z,8.77
2019-04-21T17:28:07.822Z,8.80
2019-04-21T17:30:37.735Z,7.47
2019-04-21T17:33:10.244Z,8.07
2019-04-21T17:35:38.664Z,7.90
2019-04-21T17:38:09.991Z,6.73
2019-04-21T17:40:40.022Z,7.80
2019-04-21T17:43:14.346Z,8.03
2019-04-21T17:45:41.422Z,7.67
2019-04-21T17:48:14.934Z,7.70
2019-04-21T17:50:57.289Z,7.03
2019-04-21T17:53:38.198Z,8.17
2019-04-21T17:56:23.480Z,7.30
2019-04-21T17:59:01.449Z,8.57
2019-04-21T18:01:35.888Z,7.77
2019-04-21T18:04:03.787Z,6.47
2019-04-21T18:09:05.718Z,7.50
2019-04-21T18:11:39.562Z,8.80
2019-04-21T18:13:49.550Z,7.93
2019-04-21T18:16:28.917Z,7.53
2019-04-21T18:18:50.741Z,8.40
2019-04-21T18:21:40.216Z,8.83
2019-04-21T18:24:15.608Z,7.77
2019-04-21T18:26:51.042Z,7.70
2019-04-21T18:29:12.077Z,7.50
2019-04-21T18:31:48.040Z,8.47
2019-04-21T18:34:34.251Z,6.27
2019-04-21T18:37:14.720Z,7.60
2019-04-21T18:39:55.855Z,7.67
2019-04-21T18:42:47.916Z,8.97
2019-04-21T18:45:45.522Z,7.93
2019-04-21T18:48:02.637Z,9.30
2019-04-21T18:50:46.306Z,8.30
2019-04-21T18:53:36.499Z,8.13
2019-04-21T18:55:56.245Z,6.80
2019-04-21T18:58:24.177Z,8.40
2019-04-21T19:00:53.308Z,7.17
2019-04-21T19:03:33.941Z,7.13
2019-04-21T19:06:08.769Z,8.23
2019-04-21T19:08:54.932Z,7.50
2019-04-21T19:11:24.037Z,7.73
2019-04-21T19:14:20.986Z,8.03
2019-04-21T19:17:01.067Z,7.60
2019-04-21T19:19:36.588Z,8.27
2019-04-21T19:21:51.897Z,7.40
2019-04-21T19:24:31.985Z,7.33
2019-04-21T19:27:19.344Z,8.20
2019-04-21T19:29:35.413Z,7.70
2019-04-21T19:32:08.418Z,7.83
2019-04-21T19:34:25.987Z,9.57
2019-04-21T19:37:00.790Z,9.13
2019-04-21T19:39:39.195Z,8.57
2019-04-21T19:42:07.186Z,7.00
2019-04-21T19:44:47.117Z,9.13
2019-04-21T19:47:15.207Z,8.00
2019-04-21T19:49:51.311Z,7.63
2019-04-21T19:52:09.448Z,7.87
2019-04-21T19:54:39.710Z,7.50
2019-04-21T19:57:07.012Z,9.07
2019-04-21T19:59:44.678Z,7.30
2019-04-21T20:02:08.976Z,8.10
2019-04-21T20:04:47.941Z,7.50
2019-04-21T20:07:23.442Z,8.17
2019-04-21T20:09:57.527Z,7.53
2019-04-21T20:12:36.561Z,7.93
2019-04-21T20:15:10.796Z,8.50
2019-04-21T20:17:40.788Z,9.10
2019-04-21T20:19:50.096Z,8.43
2019-04-21T20:22:24.020Z,8.17
2019-04-21T20:25:01.418Z,7.63
2019-04-21T20:27:34.776Z,9.10
2019-04-21T20:30:21.770Z,8.77
2019-04-21T20:32:49.300Z,7.93
2019-04-21T20:35:35.130Z,7.70
2019-04-21T20:37:57.657Z,7.47
2019-04-21T20:40:25.330Z,7.67
2019-04-21T20:43:08.208Z,8.43
2019-04-21T20:46:00.585Z,8.30
2019-04-21T20:48:08.199Z,10.20
2019-04-21T20:50:41.814Z,7.40
2019-04-21T20:53:46.547Z,6.87
2019-04-21T20:56:19.444Z,8.00
2019-04-21T20:58:55.726Z,7.53
2019-04-21T21:01:35.884Z,8.93
2019-04-21T21:03:57.842Z,9.40
2019-04-21T21:06:35.267Z,7.93
2019-04-21T21:09:10.316Z,9.10
2019-04-21T21:11:45.136Z,8.10
2019-04-21T21:14:17.595Z,8.20
2019-04-21T21:16:53.660Z,10.07
2019-04-21T21:19:38.151Z,10.27
2019-04-21T21:21:44.490Z,10.30
2019-04-21T21:24:27.292Z,8.33
2019-04-21T21:26:54.605Z,10.20
2019-04-21T21:29:29.152Z,8.30
2019-04-21T21:32:06.762Z,9.67
2019-04-21T21:34:35.510Z,9.90
2019-04-21T21:37:04.300Z,9.20
2019-04-21T21:39:39.487Z,11.37
2019-04-21T21:41:50.970Z,10.63
2019-04-21T21:44:21.248Z,10.13
2019-04-21T21:47:00.492Z,11.63
2019-04-21T21:49:35.551Z,9.70
2019-04-21T21:52:04.466Z,10.70
2019-04-21T21:54:23.263Z,9.23
2019-04-21T21:56:52.683Z,11.50
2019-04-21T21:59:26.428Z,10.63
2019-04-21T22:01:54.887Z,9.80
2019-04-21T22:04:28.855Z,11.13
2019-04-21T22:07:04.627Z,10.87
2019-04-21T22:09:32.344Z,10.10
2019-04-21T22:12:05.191Z,11.57
2019-04-21T22:14:41.639Z,9.37
2019-04-21T22:17:27.530Z,10.70
2019-04-21T22:20:00.360Z,9.43
2019-04-21T22:22:23.133Z,8.80
2019-04-21T22:24:53.419Z,9.80
2019-04-21T22:27:12.867Z,9.57
2019-04-21T22:29:49.223Z,11.67
2019-04-21T22:32:25.003Z,10.70
2019-04-21T22:34:56.535Z,10.63
2019-04-21T22:37:35.037Z,9.30
2019-04-21T22:40:04.463Z,10.50
2019-04-21T22:42:30.193Z,8.97
2019-04-21T22:44:56.720Z,9.63
2019-04-21T22:47:32.274Z,10.27
2019-04-21T22:49:57.199Z,8.73
2019-04-21T22:52:29.603Z,9.73
2019-04-21T22:55:03.231Z,9.40
2019-04-21T22:57:36.468Z,8.27
2019-04-21T23:00:03.901Z,10.03
2019-04-21T23:02:35.430Z,10.37
2019-04-21T23:05:07.832Z,8.27
2019-04-21T23:07:44.115Z,8.73
2019-04-21T23:10:09.423Z,9.77
2019-04-21T23:12:41.790Z,8.53
2019-04-21T23:15:16.569Z,10.53
2019-04-21T23:18:00.797Z,8.40
2019-04-21T23:20:31.589Z,9.17
2019-04-21T23:23:15.137Z,8.50
2019-04-21T23:25:36.656Z,9.27
2019-04-21T23:28:09.218Z,9.00
2019-04-21T23:30:45.819Z,8.30
2019-04-21T23:33:02.387Z,8.97
2019-04-21T23:35:34.250Z,8.23
2019-04-21T23:38:02.993Z,10.00
2019-04-21T23:40:30.807Z,8.30
2019-04-21T23:43:07.748Z,9.30
2019-04-21T23:45:35.974Z,8.70
2019-04-21T23:48:14.427Z,8.97
2019-04-21T23:50:41.907Z,9.10
2019-04-21T23:53:03.862Z,9.10
2019-04-21T23:55:34.915Z,9.03
2019-04-21T23:58:09.979Z,7.63
